LIRNLIRL

Guest
Details From LIRN - Naples Capodichino
To LIRL - LATINA
Flight Number -
Tags generated
Created
Modified
Stats Distance 74 nm / 137 km
Max Altitude 0 ft / 0 m
Waypoints 3
Social Downloads 1
Likes 0
Share VATSIM

Download

Looking for another format? Having issues loading an existing format? Contact us
Advertisement - Login to hide

Notes

Basic altitude profile: - Ascent Rate: 2500ft/min - Ascent Speed: 250kts - Cruise Altitude: 35000ft - Cruise Speed: 420kts - Descent Rate: 1500ft/min - Descent Speed: 250kts Options: - Use NATs: yes - Use PACOTS: yes - Use low airways: yes - Use high airways: yes

Route

LIRN LAT LIRL

ID Type Via Altitude Latitude Longitude Leg Dist Tot Dist Heading (true) Name
O LIRN APT - 0 ft / 0 m 40.88603˚ 14.29078˚ - 0 nm - Naples Capodichino
LAT VOR - 0 ft / 0 m 41.54110˚ 12.91806˚ 73 nm 73 nm 303° / 302° LATINA VOR-DME
O LIRL APT - 0 ft / 0 m 41.54244˚ 12.90902˚ 0 nm 73 nm 281° / 281° LATINA

Altitude Profile

Advertisement - Login to hide

LIRN

Details ICAO LIRN (NAP)
Name Naples Capodichino
Region Italy
Timezone Europe/Rome (UTC+1.0)
Stats Elevation 294 ft / 90 m (AMSL)
Location 40.886032° 14.290783°
Runways 1
Magnetic Variation 3.307° E

METAR

LIRN 111650Z 17010KT 130V200 9999 FEW020 SCT040 16/09 Q1012 NOSIG

Decode

TAF

TAF LIRN 111100Z 1112/1212 19016G26KT 9999 SCT030 BECMG 1116/1118 17010KT

Decode

Departure Runways

ID Width Length Bearing (true) Bearing (mag) Surface Threshold Offset Overrun Length
06 148 ft / 45 m 8,612 ft / 2,625 m 58.03° 54.72° Asphalt 1,309 ft / 399 m 0 ft / 0 m
24 148 ft / 45 m 8,612 ft / 2,625 m 238.05° 234.74° Asphalt 624 ft / 190 m 0 ft / 0 m

LIRL

Details ICAO LIRL (QLT)
Name LATINA
Region Italy
Timezone Europe/Rome (UTC+1.0)
Stats Elevation 93 ft / 28 m (AMSL)
Location 41.542436° 12.909019°
Runways 1
Magnetic Variation 3.101° E

METAR

LIRL 111655Z 16013KT 8000 SCT020 BKN035 15/11 Q1009

Decode

TAF

Not found

Destination Runways

ID Width Length Bearing (true) Bearing (mag) Surface Threshold Offset Overrun Length
12 131 ft / 40 m 5,557 ft / 1,694 m 124.64° 121.54° Asphalt 0 ft / 0 m 174 ft / 53 m
30 131 ft / 40 m 5,557 ft / 1,694 m 304.65° 301.55° Asphalt 0 ft / 0 m 413 ft / 126 m